createdAt,value
2023-10-23T00:01:38.190Z,100829.56
2023-10-23T00:04:07.114Z,100815.41
2023-10-23T00:06:35.858Z,100833.94
2023-10-23T00:09:04.136Z,100826.84
2023-10-23T00:11:33.590Z,100826.00
2023-10-23T00:14:01.564Z,100829.56
2023-10-23T00:16:29.847Z,100827.66
2023-10-23T00:18:57.893Z,100816.41
2023-10-23T00:21:26.078Z,100824.94
2023-10-23T00:23:54.101Z,100818.66
2023-10-23T00:26:22.301Z,100826.84
2023-10-23T00:28:51.742Z,100828.50
2023-10-23T00:31:19.695Z,100830.41
2023-10-23T00:33:47.714Z,100829.56
2023-10-23T00:36:16.254Z,100825.19
2023-10-23T00:38:44.425Z,100827.31
2023-10-23T00:41:12.701Z,100831.44
2023-10-23T00:43:40.907Z,100834.16
2023-10-23T00:46:16.140Z,100840.69
2023-10-23T00:48:44.277Z,100844.25
2023-10-23T00:51:13.257Z,100815.13
2023-10-23T00:53:41.598Z,100846.97
2023-10-23T00:56:10.281Z,100843.44
2023-10-23T00:58:40.270Z,100842.59
2023-10-23T01:01:08.539Z,100851.59
2023-10-23T01:03:38.026Z,100846.16
2023-10-23T01:06:06.367Z,100850.50
2023-10-23T01:08:34.332Z,100764.59
2023-10-23T01:11:02.410Z,100842.81
2023-10-23T01:13:30.338Z,100840.91
2023-10-23T01:15:58.588Z,100852.44
2023-10-23T01:18:26.939Z,100837.13
2023-10-23T01:20:56.450Z,100837.13
2023-10-23T01:23:26.398Z,100844.25
2023-10-23T01:25:56.051Z,100837.97
2023-10-23T01:28:24.038Z,100835.25
2023-10-23T01:30:52.318Z,100833.38
2023-10-23T01:33:20.973Z,100829.81
2023-10-23T01:35:49.569Z,100827.78
2023-10-23T01:38:17.639Z,100827.09
2023-10-23T01:40:45.630Z,100828.97
2023-10-23T01:43:14.967Z,100832.75
2023-10-23T01:45:43.319Z,100828.13
2023-10-23T01:48:11.818Z,100836.31
2023-10-23T01:50:41.733Z,100843.63
2023-10-23T01:53:10.002Z,100835.47
2023-10-23T01:55:38.358Z,100847.19
2023-10-23T01:58:06.400Z,100847.19
2023-10-23T02:00:35.815Z,100850.75
2023-10-23T02:03:03.905Z,100848.03
2023-10-23T02:05:32.204Z,100850.75
2023-10-23T02:08:00.237Z,100841.75
2023-10-23T02:10:30.052Z,100856.44
2023-10-23T02:12:58.221Z,100860.81
2023-10-23T02:15:26.588Z,100866.47
2023-10-23T02:17:56.120Z,100868.16
2023-10-23T02:20:28.525Z,100864.59
2023-10-23T02:22:56.456Z,100863.75
2023-10-23T02:25:24.682Z,100859.16
2023-10-23T02:27:52.656Z,100868.16
2023-10-23T02:30:20.656Z,100856.44
2023-10-23T02:32:48.606Z,100856.44
2023-10-23T02:35:18.400Z,100859.97
2023-10-23T02:37:46.344Z,100856.44
2023-10-23T02:40:14.633Z,100859.97
2023-10-23T02:42:42.661Z,100861.03
2023-10-23T02:45:11.121Z,100858.53
2023-10-23T02:47:39.414Z,100849.16
2023-10-23T02:50:08.707Z,100843.34
2023-10-23T02:52:38.049Z,100859.16
2023-10-23T02:55:07.489Z,100858.09
2023-10-23T02:57:35.562Z,100862.72
2023-10-23T03:00:07.701Z,100861.03
2023-10-23T03:02:36.594Z,100862.72
2023-10-23T03:05:05.540Z,100859.16
2023-10-23T03:07:34.137Z,100860.19
2023-10-23T03:10:03.533Z,100855.00
2023-10-23T03:12:31.540Z,100856.88
2023-10-23T03:14:59.825Z,100868.84
2023-10-23T03:17:27.788Z,100864.22
2023-10-23T03:19:56.199Z,100862.56
2023-10-23T03:22:24.509Z,100865.50
2023-10-23T03:24:53.073Z,100871.78
2023-10-23T03:27:22.707Z,100869.06
2023-10-23T03:29:50.771Z,100861.72
2023-10-23T03:32:18.710Z,100858.16
2023-10-23T03:34:47.128Z,100856.72
2023-10-23T03:37:15.498Z,100870.09
2023-10-23T03:39:44.111Z,100865.50
2023-10-23T03:42:12.351Z,100866.31
2023-10-23T03:44:42.070Z,100870.94
2023-10-23T03:47:10.000Z,100873.66
2023-10-23T03:49:38.194Z,100876.38
2023-10-23T03:52:06.501Z,100871.78
2023-10-23T03:54:34.489Z,100876.38
2023-10-23T03:57:02.792Z,100880.78
2023-10-23T03:59:31.118Z,100886.44
2023-10-23T04:02:00.810Z,100888.31
2023-10-23T04:04:29.695Z,100891.06
2023-10-23T04:06:59.907Z,100898.16
2023-10-23T04:09:31.109Z,100895.44
2023-10-23T04:11:59.072Z,100892.72
2023-10-23T04:14:26.976Z,100885.03
2023-10-23T04:16:54.918Z,100892.13
2023-10-23T04:19:24.250Z,100891.31
2023-10-23T04:21:52.342Z,100882.88
2023-10-23T04:24:20.371Z,100892.13
2023-10-23T04:26:48.614Z,100898.41
2023-10-23T04:29:16.599Z,100896.75
2023-10-23T04:31:44.620Z,100897.34
2023-10-23T04:34:12.664Z,100894.03
2023-10-23T04:36:42.307Z,100892.97
2023-10-23T04:39:10.405Z,100895.91
2023-10-23T04:41:38.370Z,100901.16
2023-10-23T04:44:06.969Z,100891.31
2023-10-23T04:46:35.452Z,100896.50
2023-10-23T04:49:04.913Z,100882.28
2023-10-23T04:51:34.724Z,100887.75
2023-10-23T04:54:04.470Z,100886.91
2023-10-23T04:56:32.567Z,100886.91
2023-10-23T04:59:00.524Z,100891.88
2023-10-23T05:01:28.543Z,100880.41
2023-10-23T05:03:56.587Z,100885.84
2023-10-23T05:06:28.090Z,100886.91
2023-10-23T05:08:56.147Z,100885.03
2023-10-23T05:11:25.825Z,100878.53
2023-10-23T05:13:54.632Z,100883.13
2023-10-23T05:16:23.003Z,100885.84
2023-10-23T05:18:51.499Z,100884.19
2023-10-23T05:21:19.536Z,100870.56
2023-10-23T05:23:47.521Z,100871.63
2023-10-23T05:26:16.097Z,100867.84
2023-10-23T05:28:45.789Z,100867.00
2023-10-23T05:31:14.187Z,100867.00
2023-10-23T05:33:42.206Z,100873.28
2023-10-23T05:36:11.227Z,100865.94
2023-10-23T05:38:39.246Z,100865.13
2023-10-23T05:41:09.144Z,100875.19
2023-10-23T05:43:37.349Z,100877.06
2023-10-23T05:46:07.236Z,100869.72
2023-10-23T05:48:37.747Z,100886.06
2023-10-23T05:51:07.028Z,100882.50
2023-10-23T05:53:35.085Z,100882.50
2023-10-23T05:56:04.892Z,100888.78
2023-10-23T05:58:33.176Z,100894.25
2023-10-23T06:01:07.393Z,100896.97
2023-10-23T06:03:36.235Z,100883.56
2023-10-23T06:06:04.997Z,100885.22
2023-10-23T06:08:33.249Z,100879.41
2023-10-23T06:11:01.640Z,100880.00
2023-10-23T06:13:29.641Z,100879.78
2023-10-23T06:16:03.912Z,100883.34
2023-10-23T06:18:33.630Z,100884.41
2023-10-23T06:21:04.609Z,100883.34
2023-10-23T06:23:33.968Z,100885.22
2023-10-23T06:26:02.457Z,100886.06
2023-10-23T06:28:30.464Z,100887.13
2023-10-23T06:30:58.515Z,100884.41
2023-10-23T06:33:26.504Z,100881.66
2023-10-23T06:36:02.078Z,100876.44
2023-10-23T06:38:30.569Z,100887.97
2023-10-23T06:41:03.586Z,100886.28
2023-10-23T06:43:31.649Z,100872.75
2023-10-23T06:46:02.189Z,100889.00
2023-10-23T06:48:30.871Z,100898.00
2023-10-23T06:50:59.022Z,100898.00
2023-10-23T06:53:28.392Z,100891.72
2023-10-23T06:55:56.930Z,100890.69
2023-10-23T06:58:24.950Z,100889.84
2023-10-23T07:00:53.261Z,100895.28
2023-10-23T07:03:21.898Z,100882.97
2023-10-23T07:05:50.190Z,100893.41
2023-10-23T07:08:18.181Z,100892.56
2023-10-23T07:10:47.564Z,100895.28
2023-10-23T07:13:22.829Z,100895.06
2023-10-23T07:15:52.058Z,100907.03
2023-10-23T07:18:20.666Z,100910.78
2023-10-23T07:20:58.198Z,100904.28
2023-10-23T07:23:26.868Z,100908.91
2023-10-23T07:26:08.987Z,100909.75
2023-10-23T07:28:37.486Z,100905.34
2023-10-23T07:31:05.604Z,100908.91
2023-10-23T07:33:33.681Z,100899.69
2023-10-23T07:36:03.809Z,100903.25
2023-10-23T07:38:31.935Z,100906.81
2023-10-23T07:41:00.170Z,100901.56
2023-10-23T07:43:29.526Z,100904.28
2023-10-23T07:46:12.023Z,100903.25
2023-10-23T07:48:44.419Z,100896.97
2023-10-23T07:51:12.663Z,100894.25
2023-10-23T07:53:40.827Z,100881.88
2023-10-23T07:56:09.308Z,100872.75
2023-10-23T07:58:38.608Z,100889.63
2023-10-23T08:01:07.160Z,100887.75
2023-10-23T08:03:36.141Z,100884.19
2023-10-23T08:06:05.033Z,100887.97
2023-10-23T08:08:35.247Z,100885.84
2023-10-23T08:11:04.956Z,100886.91
2023-10-23T08:13:33.326Z,100884.19
2023-10-23T08:16:04.877Z,100887.75
2023-10-23T08:21:10.228Z,100886.06
2023-10-23T08:23:38.231Z,100882.28
2023-10-23T08:26:06.841Z,100871.41
2023-10-23T08:28:58.941Z,100876.84
2023-10-23T08:31:38.212Z,100867.84
2023-10-23T08:34:08.121Z,100871.41
2023-10-23T08:36:36.807Z,100874.72
2023-10-23T08:39:05.109Z,100868.69
2023-10-23T08:41:33.294Z,100864.91
2023-10-23T08:44:01.300Z,100872.25
2023-10-23T08:46:33.528Z,100875.81
2023-10-23T08:49:02.100Z,100880.16
2023-10-23T08:51:30.308Z,100877.44
2023-10-23T08:54:11.106Z,100877.44
2023-10-23T08:56:41.069Z,100871.19
2023-10-23T08:59:10.445Z,100876.63
2023-10-23T09:01:40.133Z,100873.91
2023-10-23T09:04:08.934Z,100871.19
2023-10-23T09:06:37.963Z,100864.91
2023-10-23T09:09:06.646Z,100861.09
2023-10-23T09:11:42.883Z,100859.22
2023-10-23T09:14:10.997Z,100857.78
2023-10-23T09:16:40.819Z,100857.56
2023-10-23T09:19:08.895Z,100864.66
2023-10-23T09:21:36.886Z,100866.53
2023-10-23T09:24:05.748Z,100856.47
2023-10-23T09:26:34.405Z,100857.78
2023-10-23T09:29:02.804Z,100855.91
2023-10-23T09:31:31.017Z,100863.00
2023-10-23T09:34:00.818Z,100856.47
2023-10-23T09:36:28.997Z,100851.03
2023-10-23T09:39:00.901Z,100857.31
2023-10-23T09:41:29.071Z,100856.47
2023-10-23T09:43:57.783Z,100855.44
2023-10-23T09:46:27.279Z,100866.31
2023-10-23T09:49:01.483Z,100813.81
2023-10-23T09:51:32.437Z,100850.81
2023-10-23T09:54:01.442Z,100844.53
2023-10-23T09:56:32.862Z,100838.72
2023-10-23T09:59:01.225Z,100843.69
2023-10-23T10:01:33.143Z,100836.38
2023-10-23T10:04:05.107Z,100831.75
2023-10-23T10:06:34.891Z,100826.31
2023-10-23T10:09:05.432Z,100819.19
2023-10-23T10:11:33.437Z,100819.19
2023-10-23T10:14:01.382Z,100825.47
2023-10-23T10:16:29.672Z,100827.38
2023-10-23T10:18:57.839Z,100814.59
2023-10-23T10:21:26.322Z,100808.97
2023-10-23T10:23:59.599Z,100814.81
2023-10-23T10:26:27.560Z,100824.44
2023-10-23T10:28:56.575Z,100815.41
2023-10-23T10:31:24.708Z,100819.81
2023-10-23T10:34:25.550Z,100817.09
2023-10-23T10:36:47.358Z,100815.41
2023-10-23T10:39:18.299Z,100808.09
2023-10-23T10:41:46.247Z,100793.63
2023-10-23T10:44:14.776Z,100800.75
2023-10-23T10:46:42.969Z,100794.47
2023-10-23T10:49:11.576Z,100789.84
2023-10-23T10:51:39.807Z,100783.56
2023-10-23T10:54:09.382Z,100780.63
2023-10-23T10:56:39.068Z,100791.53
2023-10-23T10:59:07.334Z,100771.63
2023-10-23T11:01:35.459Z,100766.19
2023-10-23T11:04:04.223Z,100767.84
2023-10-23T11:06:32.566Z,100770.56
2023-10-23T11:09:00.838Z,100770.78
2023-10-23T11:11:29.219Z,100757.19
2023-10-23T11:14:03.661Z,100754.44
2023-10-23T11:16:32.722Z,100748.16
2023-10-23T11:19:01.049Z,100754.44
2023-10-23T11:21:28.985Z,100749.84
2023-10-23T11:23:57.423Z,100743.56
2023-10-23T11:26:25.792Z,100747.13
2023-10-23T11:28:53.789Z,100739.16
2023-10-23T11:31:24.627Z,100733.50
2023-10-23T11:33:53.760Z,100731.59
2023-10-23T11:36:22.736Z,100721.56
2023-10-23T11:38:50.739Z,100719.63
2023-10-23T11:41:18.814Z,100716.09
2023-10-23T11:43:46.745Z,100713.38
2023-10-23T11:46:15.048Z,100704.59
2023-10-23T11:48:44.543Z,100709.00
2023-10-23T11:51:12.701Z,100683.94
2023-10-23T11:53:40.887Z,100702.50
2023-10-23T11:56:09.510Z,100690.75
2023-10-23T11:58:37.620Z,100685.31
2023-10-23T12:01:06.304Z,100683.44
2023-10-23T12:03:34.482Z,100673.34
2023-10-23T12:06:04.768Z,100665.41
2023-10-23T12:08:32.753Z,100652.63
2023-10-23T12:11:00.876Z,100663.53
2023-10-23T12:13:28.836Z,100650.75
2023-10-23T12:15:57.117Z,100652.63
2023-10-23T12:18:27.438Z,100657.81
2023-10-23T12:20:57.864Z,100652.38
2023-10-23T12:23:28.746Z,100627.84
2023-10-23T12:25:57.697Z,100649.66
2023-10-23T12:28:26.102Z,100640.66
2023-10-23T12:30:54.276Z,100636.03
2023-10-23T12:33:25.064Z,100636.88
2023-10-23T12:35:56.975Z,100639.59
2023-10-23T12:38:25.385Z,100644.22
2023-10-23T12:40:54.705Z,100628.69
2023-10-23T12:43:23.776Z,100617.81
2023-10-23T12:45:52.295Z,100627.03
2023-10-23T12:48:20.531Z,100620.53
2023-10-23T12:50:48.544Z,100605.03
2023-10-23T12:53:16.538Z,100602.31
2023-10-23T12:55:45.000Z,100586.19
2023-10-23T12:58:14.345Z,100578.84
2023-10-23T13:00:42.772Z,100576.13
2023-10-23T13:03:11.124Z,100574.50
2023-10-23T13:05:39.873Z,100549.69
2023-10-23T13:08:07.841Z,100558.16
2023-10-23T13:10:35.865Z,100553.50
2023-10-23T13:13:04.875Z,100539.88
2023-10-23T13:15:34.628Z,100539.88
2023-10-23T13:18:03.727Z,100540.72
2023-10-23T13:20:51.579Z,100527.09
2023-10-23T13:23:21.010Z,100532.56
2023-10-23T13:25:57.958Z,100520.81
2023-10-23T13:28:35.168Z,100518.09
2023-10-23T13:31:04.942Z,100517.88
2023-10-23T13:33:33.090Z,100516.00
2023-10-23T13:36:01.160Z,100508.66
2023-10-23T13:38:29.304Z,100500.97
2023-10-23T13:40:57.973Z,100504.03
2023-10-23T13:43:26.527Z,100484.16
2023-10-23T13:45:54.819Z,100480.38
2023-10-23T13:48:24.314Z,100477.63
2023-10-23T13:50:52.378Z,100470.53
2023-10-23T13:53:20.722Z,100469.47
2023-10-23T13:55:48.948Z,100469.69
2023-10-23T13:58:17.233Z,100459.63
2023-10-23T14:00:45.846Z,100456.91
2023-10-23T14:03:14.180Z,100449.56
2023-10-23T14:05:43.699Z,100444.13
2023-10-23T14:08:11.740Z,100444.13
2023-10-23T14:10:40.478Z,100431.34
2023-10-23T14:13:08.580Z,100420.44
2023-10-23T14:15:37.254Z,100416.66
2023-10-23T14:18:05.689Z,100406.84
2023-10-23T14:20:33.968Z,100407.66
2023-10-23T14:23:03.428Z,100404.09
2023-10-23T14:25:31.461Z,100404.34
2023-10-23T14:27:59.709Z,100398.06
2023-10-23T14:30:27.880Z,100395.09
2023-10-23T14:32:55.925Z,100371.06
2023-10-23T14:35:24.003Z,100372.50
2023-10-23T14:37:52.251Z,100363.25
2023-10-23T14:40:21.589Z,100353.44
2023-10-23T14:42:49.623Z,100341.69
2023-10-23T14:45:17.812Z,100351.53
2023-10-23T14:47:45.776Z,100346.09
2023-10-23T14:50:14.050Z,100325.47
2023-10-23T14:52:45.416Z,100334.13
2023-10-23T14:55:13.771Z,100338.75
2023-10-23T14:57:43.146Z,100339.81
2023-10-23T15:00:12.628Z,100322.63
2023-10-23T15:02:40.622Z,100325.97
2023-10-23T15:05:09.565Z,100329.53
2023-10-23T15:07:37.647Z,100324.06
2023-10-23T15:10:06.565Z,100317.53
2023-10-23T15:12:34.700Z,100312.09
2023-10-23T15:15:04.546Z,100307.72
2023-10-23T15:17:32.641Z,100300.34
2023-10-23T15:20:00.715Z,100297.63
2023-10-23T15:22:28.811Z,100297.63
2023-10-23T15:24:57.213Z,100290.31
2023-10-23T15:27:25.397Z,100290.56
2023-10-23T15:29:54.087Z,100296.56
2023-10-23T15:32:23.673Z,100295.75
2023-10-23T15:34:51.640Z,100293.03
2023-10-23T15:37:20.499Z,100291.13
2023-10-23T15:39:48.546Z,100290.31
2023-10-23T15:42:16.805Z,100289.47
2023-10-23T15:44:44.937Z,100281.31
2023-10-23T15:47:13.530Z,100281.31
2023-10-23T15:49:43.020Z,100279.41
2023-10-23T15:52:11.168Z,100272.31
2023-10-23T15:54:39.217Z,100269.59
2023-10-23T15:57:07.172Z,100285.69
2023-10-23T15:59:35.236Z,100279.41
2023-10-23T16:02:03.324Z,100284.84
2023-10-23T16:04:31.906Z,100288.66
2023-10-23T16:07:01.545Z,100291.41
2023-10-23T16:09:29.462Z,100306.63
2023-10-23T16:12:09.809Z,100310.47
2023-10-23T16:14:53.659Z,100318.63
2023-10-23T16:17:25.059Z,100327.03
2023-10-23T16:19:53.072Z,100327.84
2023-10-23T16:22:24.024Z,100329.75
2023-10-23T16:24:52.358Z,100334.13
2023-10-23T16:27:20.449Z,100331.41
2023-10-23T16:29:50.353Z,100318.03
2023-10-23T16:32:20.023Z,100324.31
2023-10-23T16:34:48.108Z,100327.84
2023-10-23T16:37:16.147Z,100329.53
2023-10-23T16:39:45.886Z,100334.38
2023-10-23T16:42:14.361Z,100327.84
2023-10-23T16:44:55.342Z,100325.97
2023-10-23T16:47:24.534Z,100325.13
2023-10-23T16:49:53.591Z,100326.78
2023-10-23T16:52:21.669Z,100319.09
2023-10-23T16:54:51.110Z,100304.19
2023-10-23T16:57:19.588Z,100301.47
2023-10-23T16:59:48.781Z,100294.91
2023-10-23T17:02:16.929Z,100291.41
2023-10-23T17:04:45.834Z,100285.13
2023-10-23T17:07:14.750Z,100284.84
2023-10-23T17:09:42.833Z,100270.41
2023-10-23T17:12:12.222Z,100264.16
2023-10-23T17:14:41.125Z,100255.16
2023-10-23T17:17:09.502Z,100246.16
2023-10-23T17:19:39.264Z,100216.22
2023-10-23T17:22:07.503Z,100224.09
2023-10-23T17:24:36.480Z,100206.13
2023-10-23T17:27:04.977Z,100204.47
2023-10-23T17:29:34.340Z,100199.03
2023-10-23T17:32:03.920Z,100205.31
2023-10-23T17:34:32.174Z,100168.06
2023-10-23T17:37:00.735Z,100159.75
2023-10-23T17:39:28.723Z,100159.03
2023-10-23T17:41:56.658Z,100158.19
2023-10-23T17:44:24.566Z,100163.41
2023-10-23T17:46:55.000Z,100147.66
2023-10-23T17:49:23.534Z,100172.72
2023-10-23T17:51:51.693Z,100180.66
2023-10-23T17:54:20.082Z,100179.56
2023-10-23T17:56:48.141Z,100162.41
2023-10-23T17:59:16.076Z,100163.50
2023-10-23T18:01:44.696Z,100169.50
2023-10-23T18:04:14.402Z,100165.13
2023-10-23T18:06:42.665Z,100147.16
2023-10-23T18:09:10.775Z,100149.06
2023-10-23T18:11:41.807Z,100153.66
2023-10-23T18:14:12.610Z,100148.47
2023-10-23T18:16:41.556Z,100136.16
2023-10-23T18:19:13.096Z,100138.41
2023-10-23T18:21:44.587Z,100122.28
2023-10-23T18:24:13.700Z,100122.56
2023-10-23T18:26:41.753Z,100128.78
2023-10-23T18:29:10.193Z,100123.34
2023-10-23T18:31:39.709Z,100124.19
2023-10-23T18:34:08.192Z,100108.94
2023-10-23T18:36:37.053Z,100115.19
2023-10-23T18:39:06.677Z,100114.38
2023-10-23T18:41:34.903Z,100108.66
2023-10-23T18:44:04.097Z,100092.34
2023-10-23T18:46:32.659Z,100097.78
2023-10-23T18:49:00.769Z,100094.22
2023-10-23T18:51:28.872Z,100089.88
2023-10-23T18:53:56.823Z,100074.34
2023-10-23T18:56:26.713Z,100081.44
2023-10-23T18:58:54.853Z,100084.16
2023-10-23T19:01:22.839Z,100088.78
2023-10-23T19:03:50.880Z,100094.22
2023-10-23T19:06:19.323Z,100102.41
2023-10-23T19:08:52.333Z,100084.25
2023-10-23T19:11:20.407Z,100110.56
2023-10-23T19:13:50.010Z,100102.41
2023-10-23T19:16:18.370Z,100100.28
2023-10-23T19:18:46.429Z,100096.72
2023-10-23T19:21:14.358Z,100080.38
2023-10-23T19:23:43.365Z,100060.91
2023-10-23T19:26:12.002Z,100076.81
2023-10-23T19:28:40.080Z,100069.25
2023-10-23T19:31:21.237Z,100068.41
2023-10-23T19:33:50.387Z,100052.91
2023-10-23T19:36:20.684Z,100049.34
2023-10-23T19:38:49.513Z,100045.81
2023-10-23T19:41:17.850Z,100044.16
2023-10-23T19:43:49.521Z,100053.16
2023-10-23T19:46:19.672Z,100050.41
2023-10-23T19:48:48.266Z,100041.41
2023-10-23T19:51:18.763Z,100043.09
2023-10-23T19:53:52.832Z,100038.69
2023-10-23T19:56:30.445Z,100038.47
2023-10-23T19:59:00.842Z,100033.00
2023-10-23T20:01:30.677Z,100033.84
2023-10-23T20:03:59.008Z,100031.94
2023-10-23T20:06:27.228Z,100024.84
2023-10-23T20:08:55.422Z,100027.56
2023-10-23T20:11:23.487Z,100022.13
2023-10-23T20:13:51.519Z,100013.13
2023-10-23T20:16:20.012Z,100004.38
2023-10-23T20:18:49.764Z,100002.22
2023-10-23T20:21:19.002Z,100006.63
2023-10-23T20:23:48.318Z,100004.72
2023-10-23T20:26:16.917Z,100000.34
2023-10-23T20:28:45.424Z,100006.63
2023-10-23T20:31:18.787Z,99992.16
2023-10-23T20:33:47.145Z,99990.50
2023-10-23T20:36:18.055Z,99990.50
2023-10-23T20:38:46.352Z,99982.94
2023-10-23T20:41:18.751Z,99976.66
2023-10-23T20:43:47.168Z,99976.66
2023-10-23T20:46:15.497Z,99971.44
2023-10-23T20:48:43.544Z,99966.84
2023-10-23T20:51:11.944Z,99971.22
2023-10-23T20:53:41.572Z,99963.03
2023-10-23T20:56:10.257Z,99960.31
2023-10-23T20:58:38.324Z,99961.38
2023-10-23T21:01:07.107Z,99960.56
2023-10-23T21:03:36.556Z,99955.94
2023-10-23T21:06:06.041Z,99948.59
2023-10-23T21:08:36.846Z,99949.44
2023-10-23T21:11:06.732Z,99946.13
2023-10-23T21:13:35.073Z,99940.44
2023-10-23T21:16:03.840Z,99944.22
2023-10-23T21:18:32.944Z,99938.78
2023-10-23T21:21:01.064Z,99938.78
2023-10-23T21:23:29.815Z,99934.97
2023-10-23T21:25:58.144Z,99927.63
2023-10-23T21:28:27.920Z,99930.59
2023-10-23T21:30:56.600Z,99928.72
2023-10-23T21:33:25.185Z,99930.59
2023-10-23T21:35:53.574Z,99926.22
2023-10-23T21:38:21.522Z,99941.25
2023-10-23T21:40:49.971Z,99923.50
2023-10-23T21:43:19.459Z,99929.53
2023-10-23T21:45:55.919Z,99925.97
2023-10-23T21:48:30.539Z,99899.44
2023-10-23T21:50:58.686Z,99915.09
2023-10-23T21:53:27.142Z,99888.69
2023-10-23T21:55:56.255Z,99910.47
2023-10-23T21:58:24.857Z,99913.19
2023-10-23T22:00:54.956Z,99918.06
2023-10-23T22:03:23.532Z,99915.34
2023-10-23T22:05:52.643Z,99908.00
2023-10-23T22:08:21.317Z,99897.94
2023-10-23T22:10:49.806Z,99900.41
2023-10-23T22:13:18.317Z,99890.59
2023-10-23T22:15:46.783Z,99896.03
2023-10-23T22:18:16.109Z,99888.94
2023-10-23T22:20:44.095Z,99884.91
2023-10-23T22:23:12.010Z,99888.94
2023-10-23T22:25:40.534Z,99878.28
2023-10-23T22:28:08.895Z,99882.41
2023-10-23T22:30:35.893Z,99875.91
2023-10-23T22:33:14.457Z,99874.84
2023-10-23T22:35:44.567Z,99867.38
2023-10-23T22:38:14.871Z,99876.13
2023-10-23T22:40:43.500Z,99874.25
2023-10-23T22:43:11.816Z,99872.34
2023-10-23T22:45:51.496Z,99878.88
2023-10-23T22:48:27.523Z,99872.59
2023-10-23T22:50:57.481Z,99871.53
2023-10-23T22:53:26.032Z,99870.69
2023-10-23T22:55:55.669Z,99869.88
2023-10-23T22:58:26.435Z,99877.78
2023-10-23T23:00:55.199Z,99867.16
2023-10-23T23:03:23.924Z,99871.53
2023-10-23T23:06:09.342Z,99869.88
2023-10-23T23:08:40.800Z,99878.03
2023-10-23T23:11:09.323Z,99888.94
2023-10-23T23:13:37.885Z,99894.38
2023-10-23T23:16:07.076Z,99896.78
2023-10-23T23:18:35.569Z,99783.88
2023-10-23T23:21:05.152Z,99903.63
2023-10-23T23:23:34.472Z,99904.44
2023-10-23T23:26:03.558Z,99898.16
2023-10-23T23:28:31.603Z,99896.28
2023-10-23T23:30:59.534Z,99900.66
2023-10-23T23:33:27.533Z,99895.44
2023-10-23T23:35:56.424Z,99889.16
2023-10-23T23:38:24.478Z,99878.03
2023-10-23T23:40:53.836Z,99869.88
2023-10-23T23:43:21.790Z,99864.41
2023-10-23T23:45:50.341Z,99865.50
2023-10-23T23:48:18.331Z,99866.59
2023-10-23T23:50:46.311Z,99876.38
2023-10-23T23:53:14.223Z,99882.66
2023-10-23T23:55:42.713Z,99887.28
2023-10-23T23:58:12.354Z,99881.81
